Time;durP1;ratioP1;P1;durP2;ratioP2;P2;SDS_P1;SDS_P2;PMS_P1;PMS_P2;Temp;Humidity;BMP_temperature;BMP_pressure;BME280_temperature;BME280_humidity;BME280_pressure;Samples;Min_cycle;Max_cycle;Signal;HPM_P1;HPM_P2
2022/01/04 00:01:12;;;;;;;0.40;0.40;;;;;;;8.51;83.39;99752.78;5055834;28;20415;-82
2022/01/04 00:03:43;;;;;;;0.40;0.40;;;;;;;8.44;84.01;99753.84;5083581;28;20027;-82
2022/01/04 00:06:13;;;;;;;0.40;0.40;;;;;;;8.48;83.64;99751.09;5085977;28;20035;-80
2022/01/04 00:08:44;;;;;;;0.30;0.30;;;;;;;8.54;83.55;99741.34;5094690;28;20076;-82
2022/01/04 00:13:52;;;;;;;0.40;0.40;;;;;;;8.42;83.95;99738.22;5073264;28;20094;-81
2022/01/04 00:16:23;;;;;;;0.75;0.75;;;;;;;8.41;83.84;99731.28;5075665;28;20034;-82
2022/01/04 00:18:56;;;;;;;0.65;0.65;;;;;;;8.37;83.76;99724.47;5073883;28;20498;-82
2022/01/04 00:21:27;;;;;;;0.50;0.50;;;;;;;8.37;83.75;99721.84;5083500;28;20032;-82
2022/01/04 00:24:05;;;;;;;0.40;0.40;;;;;;;8.39;83.75;99713.94;5086227;28;20757;-82
2022/01/04 00:26:35;;;;;;;0.50;0.50;;;;;;;8.39;83.64;99701.72;5091694;28;20027;-82
2022/01/04 00:29:08;;;;;;;0.40;0.40;;;;;;;8.43;83.69;99695.47;5087763;28;20048;-81
2022/01/04 00:31:38;;;;;;;0.50;0.50;;;;;;;8.40;83.49;99690.34;5056545;28;20114;-80
2022/01/04 00:34:09;;;;;;;2.97;1.88;;;;;;;8.24;83.92;99687.44;5084360;29;20504;-80
2022/01/04 00:36:40;;;;;;;0.40;0.40;;;;;;;8.28;83.58;99677.72;5077773;28;20036;-83
2022/01/04 00:39:10;;;;;;;0.30;0.30;;;;;;;8.28;83.39;99677.72;5097813;28;20052;-80
2022/01/04 00:41:41;;;;;;;0.50;0.50;;;;;;;8.41;83.96;99670.31;5063739;29;20039;-80
2022/01/04 00:44:12;;;;;;;0.50;0.50;;;;;;;8.49;83.48;99666.53;5088245;28;20135;-81
2022/01/04 00:46:43;;;;;;;0.43;0.43;;;;;;;8.48;83.96;99664.00;5092571;29;20024;-82
2022/01/04 00:49:17;;;;;;;0.50;0.50;;;;;;;8.51;83.59;99650.81;5076962;29;20062;-80
2022/01/04 00:51:50;;;;;;;0.50;0.50;;;;;;;8.48;83.32;99656.97;5084019;28;20743;-79
2022/01/04 00:54:22;;;;;;;0.95;0.95;;;;;;;8.52;83.43;99652.50;5093835;28;20036;-80
2022/01/04 00:56:55;;;;;;;0.40;0.40;;;;;;;8.50;84.46;99642.09;5064101;28;20119;-82
2022/01/04 00:59:28;;;;;;;0.75;0.75;;;;;;;8.58;83.43;99627.91;5064836;28;20588;-82
2022/01/04 01:01:59;;;;;;;0.63;0.63;;;;;;;8.62;82.99;99619.88;5078765;29;20031;-81
2022/01/04 01:04:34;;;;;;;1.38;1.35;;;;;;;8.62;83.73;99619.06;5061136;28;20041;-80
2022/01/04 01:07:33;;;;;;;0.40;0.40;;;;;;;8.60;83.45;99613.84;5078872;29;20491;-81
2022/01/04 01:13:00;;;;;;;0.30;0.30;;;;;;;8.62;83.47;99606.81;5092179;29;20039;-81
2022/01/04 01:15:31;;;;;;;0.40;0.40;;;;;;;8.56;83.44;99598.34;5062649;28;20048;-82
2022/01/04 01:18:02;;;;;;;0.40;0.40;;;;;;;8.60;83.38;99589.47;5084055;28;20649;-82
2022/01/04 01:20:35;;;;;;;0.30;0.30;;;;;;;8.58;83.34;99604.38;5069387;29;20534;-81
2022/01/04 01:23:06;;;;;;;0.40;0.40;;;;;;;8.61;83.20;99601.66;5098848;29;20797;-82
2022/01/04 01:25:36;;;;;;;0.40;0.40;;;;;;;8.47;83.70;99591.69;5050446;28;20040;-79
2022/01/04 01:28:10;;;;;;;0.40;0.40;;;;;;;8.53;83.68;99593.25;5063922;28;20041;-81
2022/01/04 01:30:43;;;;;;;0.40;0.40;;;;;;;8.63;83.86;99589.38;5102322;29;20044;-80
2022/01/04 01:33:15;;;;;;;0.40;0.40;;;;;;;8.50;83.40;99588.97;5075289;28;20043;-82
2022/01/04 01:35:46;;;;;;;0.40;0.40;;;;;;;8.64;83.23;99594.53;5094138;29;20059;-82
2022/01/04 01:38:19;;;;;;;0.40;0.40;;;;;;;8.57;83.67;99589.59;5100120;29;20044;-80
2022/01/04 01:40:52;;;;;;;0.50;0.50;;;;;;;8.61;83.17;99578.13;5066698;29;20055;-83
2022/01/04 01:43:25;;;;;;;0.40;0.40;;;;;;;8.52;83.25;99581.91;5100761;29;20024;-82
2022/01/04 01:45:59;;;;;;;0.60;0.60;;;;;;;8.44;83.85;99576.94;5082106;28;20031;-82
2022/01/04 01:48:30;;;;;;;0.40;0.40;;;;;;;8.45;83.61;99581.28;5083218;29;20104;-79
2022/01/04 01:51:05;;;;;;;0.50;0.50;;;;;;;8.48;83.80;99570.72;5065528;29;20096;-82
2022/01/04 01:53:36;;;;;;;0.40;0.40;;;;;;;8.49;83.10;99577.66;5084800;29;20036;-82
2022/01/04 01:56:10;;;;;;;0.30;0.30;;;;;;;8.46;83.52;99569.91;5063239;29;20055;-83
2022/01/04 01:58:40;;;;;;;0.73;0.73;;;;;;;8.49;83.79;99568.97;5081492;28;20032;-81
2022/01/04 02:01:11;;;;;;;0.40;0.40;;;;;;;8.52;83.70;99573.22;5069767;29;20059;-81
2022/01/04 02:03:45;;;;;;;0.40;0.40;;;;;;;8.49;83.68;99569.81;5075975;28;20402;-80
2022/01/04 02:06:16;;;;;;;;;;;;;;;8.36;83.87;99565.91;5081418;28;20020;-81
2022/01/04 02:08:49;;;;;;;0.40;0.40;;;;;;;8.42;83.75;99564.84;5080767;28;19915;-82
2022/01/04 02:11:21;;;;;;;;;;;;;;;8.46;83.79;99559.44;5097289;28;20019;-81
2022/01/04 02:13:52;;;;;;;0.40;0.40;;;;;;;8.37;83.80;99559.78;5151030;28;19949;-81
2022/01/04 02:16:24;;;;;;;0.40;0.40;;;;;;;8.43;83.70;99548.25;5081918;29;20116;-79
2022/01/04 02:19:05;;;;;;;0.40;0.40;;;;;;;8.30;84.30;99545.25;5100214;28;20405;-82
2022/01/04 02:21:36;;;;;;;0.30;0.30;;;;;;;8.44;83.60;99540.34;5067791;29;20023;-81
2022/01/04 02:24:10;;;;;;;0.30;0.30;;;;;;;8.44;84.05;99542.97;5065427;28;20391;-80
2022/01/04 02:26:40;;;;;;;0.40;0.40;;;;;;;8.37;84.07;99536.25;5062707;29;20098;-82
2022/01/04 02:29:13;;;;;;;0.40;0.40;;;;;;;8.53;83.51;99530.50;5092895;28;20044;-81
2022/01/04 02:31:44;;;;;;;0.55;0.55;;;;;;;8.52;83.04;99527.00;5064951;29;20134;-82
2022/01/04 02:34:14;;;;;;;0.40;0.40;;;;;;;8.49;83.41;99517.53;5096510;28;20663;-81
2022/01/04 02:36:45;;;;;;;0.70;0.70;;;;;;;8.49;83.50;99514.06;5098285;29;20042;-79
2022/01/04 02:39:23;;;;;;;0.40;0.40;;;;;;;8.50;83.86;99516.63;5083559;28;20055;-80
2022/01/04 02:41:56;;;;;;;0.40;0.40;;;;;;;8.42;83.89;99517.81;5081580;29;20020;-79
2022/01/04 02:44:27;;;;;;;0.40;0.40;;;;;;;8.23;84.53;99510.63;5064485;28;20546;-82
2022/01/04 02:46:59;;;;;;;0.43;0.43;;;;;;;8.31;84.39;99499.88;5099504;28;20028;-80
2022/01/04 02:49:29;;;;;;;0.60;0.60;;;;;;;8.38;83.62;99509.22;5076651;29;20611;-82
2022/01/04 02:52:00;;;;;;;0.40;0.40;;;;;;;8.45;83.91;99520.28;5072217;28;20028;-81
2022/01/04 02:54:34;;;;;;;0.40;0.40;;;;;;;8.41;84.13;99513.47;5106588;28;20474;-80
2022/01/04 02:57:05;;;;;;;0.43;0.43;;;;;;;8.35;83.64;99506.72;5107886;29;20761;-79
2022/01/04 02:59:39;;;;;;;0.40;0.40;;;;;;;8.29;84.21;99505.16;5086557;28;20035;-82
2022/01/04 03:02:12;;;;;;;0.93;0.93;;;;;;;8.30;84.66;99503.44;5080672;29;20032;-81
2022/01/04 03:04:46;;;;;;;0.70;0.70;;;;;;;8.30;84.37;99490.38;5078304;29;20647;-81
2022/01/04 03:07:16;;;;;;;0.47;0.47;;;;;;;8.32;83.92;99488.53;5099459;29;20050;-80
2022/01/04 03:09:49;;;;;;;1.20;1.10;;;;;;;8.31;83.98;99490.28;5100617;29;20123;-80
2022/01/04 03:12:20;;;;;;;0.40;0.40;;;;;;;8.31;84.49;99495.53;5078685;28;20028;-81
2022/01/04 03:14:54;;;;;;;0.40;0.40;;;;;;;8.18;85.19;99484.66;5064354;29;20115;-81
2022/01/04 03:17:33;;;;;;;0.50;0.50;;;;;;;8.16;84.69;99478.63;5078225;28;20024;-81
2022/01/04 03:20:07;;;;;;;0.57;0.57;;;;;;;8.31;84.19;99463.28;5086180;28;20047;-81
2022/01/04 03:22:38;;;;;;;0.40;0.40;;;;;;;8.29;84.35;99454.69;5094187;28;20032;-81
2022/01/04 03:25:09;;;;;;;0.80;0.65;;;;;;;8.33;83.75;99445.78;5064013;29;20098;-80
2022/01/04 03:27:40;;;;;;;0.40;0.40;;;;;;;8.36;83.51;99435.25;5067810;28;20036;-81
2022/01/04 03:30:11;;;;;;;1.38;1.27;;;;;;;8.30;84.68;99436.31;5079013;29;20097;-82
2022/01/04 03:32:42;;;;;;;0.38;0.38;;;;;;;8.36;83.86;99422.16;5064197;29;21519;-82
2022/01/04 03:35:12;;;;;;;0.30;0.30;;;;;;;8.33;83.91;99422.28;5100313;28;20047;-81
2022/01/04 03:37:45;;;;;;;0.30;0.30;;;;;;;7.98;85.16;99416.63;5065510;29;20550;-81
2022/01/04 03:40:19;;;;;;;0.40;0.40;;;;;;;8.14;85.02;99420.38;5067198;29;20039;-81
2022/01/04 03:42:51;;;;;;;0.40;0.40;;;;;;;7.97;85.61;99407.94;5084398;29;20030;-82
2022/01/04 03:45:25;;;;;;;0.40;0.40;;;;;;;8.11;85.08;99399.59;5077318;29;20043;-79
2022/01/04 03:47:55;;;;;;;0.50;0.50;;;;;;;8.15;84.88;99376.81;5092324;28;20506;-80
2022/01/04 03:50:26;;;;;;;0.40;0.40;;;;;;;8.21;84.03;99383.56;5042667;29;20052;-79
2022/01/04 03:52:56;;;;;;;0.30;0.30;;;;;;;8.04;85.34;99391.13;5075131;29;20151;-81
2022/01/04 03:55:27;;;;;;;0.40;0.40;;;;;;;8.09;84.99;99383.13;5069272;28;20140;-82
2022/01/04 03:57:57;;;;;;;0.63;0.63;;;;;;;8.18;84.27;99374.94;5075716;28;20520;-81
2022/01/04 04:00:28;;;;;;;0.50;0.50;;;;;;;8.14;84.19;99360.25;5080929;29;20044;-81
2022/01/04 04:02:59;;;;;;;0.30;0.30;;;;;;;8.31;83.84;99375.31;5068583;29;20426;-81
2022/01/04 04:05:30;;;;;;;0.40;0.40;;;;;;;8.14;84.42;99368.09;5060905;28;20066;-82
2022/01/04 04:08:00;;;;;;;0.95;0.77;;;;;;;8.03;84.94;99352.84;5084645;29;20032;-81
2022/01/04 04:10:31;;;;;;;0.70;0.70;;;;;;;8.11;84.52;99357.78;5055042;29;20040;-81
2022/01/04 04:13:03;;;;;;;0.43;0.43;;;;;;;7.93;85.10;99351.53;5084952;28;20084;-82
2022/01/04 04:15:40;;;;;;;0.50;0.50;;;;;;;7.98;85.10;99338.25;5095474;29;20396;-81
2022/01/04 04:18:11;;;;;;;0.40;0.40;;;;;;;8.05;84.94;99337.13;5078449;28;20051;-82
2022/01/04 04:20:42;;;;;;;0.80;0.80;;;;;;;8.06;84.69;99333.59;5070618;28;20071;-80
2022/01/04 04:23:12;;;;;;;0.63;0.63;;;;;;;8.15;84.47;99325.41;5071462;28;20030;-81
2022/01/04 04:25:43;;;;;;;0.40;0.40;;;;;;;8.19;84.09;99313.06;5070534;28;20118;-82
2022/01/04 04:28:14;;;;;;;0.35;0.35;;;;;;;8.26;84.10;99308.44;5067216;28;20357;-80
2022/01/04 04:30:45;;;;;;;0.30;0.30;;;;;;;8.27;83.67;99294.47;5098894;28;20036;-81
2022/01/04 04:33:15;;;;;;;0.40;0.40;;;;;;;8.28;83.76;99286.56;5079698;29;20023;-81
2022/01/04 04:35:46;;;;;;;0.52;0.52;;;;;;;8.22;84.32;99272.91;5075405;29;20421;-80
2022/01/04 04:38:16;;;;;;;0.40;0.40;;;;;;;8.27;84.12;99278.78;5063176;28;20023;-79
2022/01/04 04:40:47;;;;;;;0.40;0.40;;;;;;;8.33;83.44;99268.94;5089885;28;20094;-81
2022/01/04 04:43:17;;;;;;;0.35;0.35;;;;;;;8.34;83.58;99270.66;5097986;29;20111;-80
2022/01/04 04:45:50;;;;;;;0.77;0.77;;;;;;;8.38;83.62;99267.91;5082444;29;20086;-80
2022/01/04 04:48:21;;;;;;;0.60;0.60;;;;;;;8.42;83.13;99261.66;5078618;28;20028;-81
2022/01/04 04:50:52;;;;;;;0.85;0.77;;;;;;;8.40;83.37;99259.06;5083590;28;20047;-80
2022/01/04 04:53:30;;;;;;;0.40;0.40;;;;;;;8.44;83.77;99265.03;5098444;29;20039;-81
2022/01/04 04:56:08;;;;;;;0.73;0.73;;;;;;;8.34;83.59;99275.00;5095849;28;20035;-81
2022/01/04 04:58:38;;;;;;;0.40;0.40;;;;;;;8.10;84.60;99272.50;5087423;29;20054;-79
2022/01/04 05:01:11;;;;;;;0.77;0.77;;;;;;;8.11;84.90;99263.75;5070940;29;20080;-81
2022/01/04 05:03:42;;;;;;;0.40;0.40;;;;;;;8.24;84.18;99268.47;5071611;28;20052;-80
2022/01/04 05:06:13;;;;;;;0.52;0.52;;;;;;;8.18;84.04;99270.41;5068679;29;20063;-79
2022/01/04 05:08:44;;;;;;;0.38;0.38;;;;;;;8.26;83.62;99271.88;5088167;28;20287;-80
2022/01/04 05:11:14;;;;;;;0.40;0.40;;;;;;;8.25;83.85;99265.81;5104325;28;20065;-81
2022/01/04 05:13:48;;;;;;;0.30;0.30;;;;;;;8.35;83.70;99266.25;5053926;28;20102;-84
2022/01/04 05:16:20;;;;;;;0.30;0.30;;;;;;;8.27;83.49;99268.34;5050823;28;20411;-84
2022/01/04 05:18:53;;;;;;;0.77;0.77;;;;;;;8.21;84.06;99263.38;5071577;28;20024;-82
2022/01/04 05:21:24;;;;;;;0.60;0.60;;;;;;;8.22;84.25;99262.47;5094027;28;20032;-81
2022/01/04 05:24:10;;;;;;;;;;;;;;;;;;;;;
2022/01/04 05:26:48;;;;;;;0.32;0.32;;;;;;;8.04;84.79;99264.91;5061256;29;20020;-83
2022/01/04 05:29:21;;;;;;;0.50;0.50;;;;;;;8.18;84.13;99254.75;5097366;28;20040;-83
2022/01/04 05:32:00;;;;;;;0.43;0.43;;;;;;;8.15;84.67;99259.25;5058033;28;20175;-82
2022/01/04 05:34:31;;;;;;;0.70;0.70;;;;;;;8.25;84.12;99250.13;5062801;28;20214;-82
2022/01/04 05:37:04;;;;;;;0.63;0.63;;;;;;;8.24;84.30;99260.63;5053008;28;20518;-84
2022/01/04 05:39:34;;;;;;;0.40;0.40;;;;;;;8.19;84.56;99264.28;5074996;28;20170;-81
2022/01/04 05:42:21;;;;;;;0.50;0.50;;;;;;;8.30;83.77;99263.00;5056438;28;20115;-82
2022/01/04 05:44:57;;;;;;;1.13;0.93;;;;;;;8.21;84.63;99263.38;5067958;28;20063;-82
2022/01/04 05:47:27;;;;;;;0.40;0.40;;;;;;;8.25;83.59;99249.25;5111948;29;20030;-83
2022/01/04 05:50:00;;;;;;;0.40;0.40;;;;;;;8.38;83.38;99247.84;5073959;28;20043;-82
2022/01/04 05:52:33;;;;;;;1.35;1.27;;;;;;;8.33;83.62;99247.19;5059592;28;20491;-82
2022/01/04 05:55:05;;;;;;;0.40;0.40;;;;;;;8.29;83.65;99246.47;5072345;29;20056;-82
2022/01/04 05:57:35;;;;;;;0.65;0.65;;;;;;;8.28;83.34;99244.75;5058305;28;20043;-82
2022/01/04 06:00:16;;;;;;;0.40;0.40;;;;;;;8.20;84.33;99239.00;5078607;29;20047;-83
2022/01/04 06:02:49;;;;;;;1.02;1.02;;;;;;;8.16;84.40;99227.81;5066885;28;20525;-82
2022/01/04 06:05:20;;;;;;;3.30;1.75;;;;;;;8.02;84.87;99214.47;5083419;29;20040;-83
2022/01/04 06:07:50;;;;;;;0.50;0.50;;;;;;;8.15;84.10;99207.00;5086423;28;20063;-82
2022/01/04 06:10:21;;;;;;;0.88;0.88;;;;;;;8.24;83.89;99206.63;5067979;28;20118;-81
2022/01/04 06:15:30;;;;;;;0.50;0.50;;;;;;;8.33;83.42;99206.22;5098936;28;20036;-82
2022/01/04 06:18:01;;;;;;;0.90;0.90;;;;;;;8.32;83.22;99203.66;5083222;29;20031;-81
2022/01/04 06:20:31;;;;;;;0.68;0.68;;;;;;;8.22;83.64;99207.59;5081422;29;20055;-81
2022/01/04 06:23:08;;;;;;;9.23;1.15;;;;;;;8.17;83.68;99205.19;5099018;29;20028;-82
2022/01/04 06:25:39;;;;;;;0.63;0.63;;;;;;;8.25;83.87;99208.31;5055964;28;20032;-82
2022/01/04 06:28:09;;;;;;;1.85;0.70;;;;;;;8.27;83.12;99200.41;5076578;28;20036;-82
2022/01/04 06:30:40;;;;;;;0.52;0.52;;;;;;;8.29;83.76;99206.44;5094629;29;20059;-81
2022/01/04 06:33:14;;;;;;;0.80;0.80;;;;;;;8.25;83.65;99197.00;5083793;28;20091;-82
2022/01/04 06:35:45;;;;;;;7.70;2.75;;;;;;;8.30;83.29;99195.06;5061197;28;20151;-82
2022/01/04 06:38:16;;;;;;;0.30;0.30;;;;;;;8.31;83.37;99188.91;5080417;29;20024;-82
2022/01/04 06:40:47;;;;;;;4.05;3.50;;;;;;;8.29;83.71;99188.13;5074983;28;20051;-82
2022/01/04 06:43:20;;;;;;;5.30;2.20;;;;;;;8.34;83.21;99181.81;5082537;28;20062;-82
2022/01/04 06:45:54;;;;;;;0.65;0.65;;;;;;;8.30;83.59;99176.78;5067299;29;20046;-83
2022/01/04 06:48:25;;;;;;;1.20;1.20;;;;;;;8.36;83.44;99179.13;5075124;28;20044;-82
2022/01/04 06:50:57;;;;;;;0.60;0.60;;;;;;;8.33;83.62;99171.38;5090307;28;20067;-83
2022/01/04 06:53:30;;;;;;;0.40;0.40;;;;;;;8.29;83.56;99164.63;5066929;28;20028;-82
2022/01/04 06:56:01;;;;;;;0.52;0.52;;;;;;;8.35;83.69;99170.41;5087738;28;20068;-83
2022/01/04 06:58:31;;;;;;;1.13;1.10;;;;;;;8.35;83.39;99161.72;5080588;28;20031;-82
2022/01/04 07:01:03;;;;;;;0.40;0.40;;;;;;;8.36;83.27;99158.19;5071483;28;20997;-81
2022/01/04 07:03:35;;;;;;;0.80;0.80;;;;;;;8.37;83.13;99164.28;5092539;29;20042;-82
2022/01/04 07:06:06;;;;;;;0.90;0.90;;;;;;;8.35;83.33;99177.41;5103514;29;20673;-81
2022/01/04 07:08:39;;;;;;;0.93;0.93;;;;;;;8.34;82.88;99171.34;5078130;29;20052;-81
2022/01/04 07:11:10;;;;;;;0.77;0.77;;;;;;;8.35;83.55;99177.41;5067370;28;20071;-81
2022/01/04 07:13:41;;;;;;;0.70;0.70;;;;;;;8.28;83.19;99176.81;5081960;28;20063;-82
2022/01/04 07:16:12;;;;;;;0.88;0.88;;;;;;;8.42;83.16;99171.00;5084534;28;20518;-81
2022/01/04 07:18:48;;;;;;;0.52;0.52;;;;;;;8.37;83.48;99169.50;5070258;28;20039;-81
2022/01/04 07:21:20;;;;;;;0.75;0.75;;;;;;;8.43;82.84;99164.03;5092937;28;20083;-81
2022/01/04 07:23:51;;;;;;;0.40;0.40;;;;;;;8.43;82.67;99162.25;5077722;28;20031;-81
2022/01/04 07:26:22;;;;;;;0.55;0.55;;;;;;;8.46;82.81;99156.91;5083079;28;20025;-81
2022/01/04 07:28:55;;;;;;;0.63;0.63;;;;;;;8.37;82.76;99149.47;5082270;28;20024;-82
2022/01/04 07:31:26;;;;;;;1.67;1.58;;;;;;;8.31;82.84;99145.34;5089261;29;20408;-81
2022/01/04 07:33:57;;;;;;;1.88;1.73;;;;;;;8.40;83.07;99153.69;5065062;28;20127;-80
2022/01/04 07:36:29;;;;;;;0.82;0.82;;;;;;;8.40;82.54;99156.31;5069196;28;20024;-82
2022/01/04 07:38:59;;;;;;;1.20;1.15;;;;;;;8.44;82.54;99153.50;5086515;28;20074;-82
2022/01/04 07:41:30;;;;;;;0.70;0.70;;;;;;;8.43;82.52;99159.63;5061797;28;20044;-82
2022/01/04 07:44:00;;;;;;;0.60;0.60;;;;;;;8.46;82.66;99154.28;5077926;28;20114;-82
2022/01/04 07:46:31;;;;;;;0.40;0.40;;;;;;;8.41;82.59;99150.16;5068989;28;20038;-82
2022/01/04 07:49:04;;;;;;;0.70;0.70;;;;;;;8.41;82.24;99144.94;5082824;28;20054;-85
2022/01/04 07:51:43;;;;;;;0.50;0.50;;;;;;;8.38;82.38;99145.94;5065582;29;20047;-83
2022/01/04 07:54:16;;;;;;;0.65;0.65;;;;;;;8.38;82.78;99137.22;5075445;29;20384;-84
2022/01/04 07:56:49;;;;;;;0.98;0.98;;;;;;;8.34;83.15;99126.91;5095347;29;20031;-81
2022/01/04 07:59:29;;;;;;;0.65;0.65;;;;;;;8.39;82.51;99123.25;5078424;28;20028;-80
2022/01/04 08:02:00;;;;;;;0.68;0.68;;;;;;;8.31;82.86;99113.97;5068232;29;20059;-81
2022/01/04 08:04:34;;;;;;;1.55;1.45;;;;;;;8.32;83.21;99120.03;5062296;29;20047;-81
2022/01/04 08:07:04;;;;;;;1.00;1.00;;;;;;;8.34;83.18;99126.91;5062374;29;20035;-82
2022/01/04 08:09:41;;;;;;;0.55;0.55;;;;;;;8.41;82.85;99132.72;5076877;28;20747;-81
2022/01/04 08:12:30;;;;;;;0.65;0.65;;;;;;;8.39;82.57;99136.31;5094979;28;20032;-81
2022/01/04 08:15:04;;;;;;;0.60;0.60;;;;;;;8.30;82.69;99142.81;5078089;29;20055;-81
2022/01/04 08:17:36;;;;;;;0.60;0.60;;;;;;;8.39;82.59;99144.97;5078476;28;20056;-82
2022/01/04 08:20:07;;;;;;;0.63;0.63;;;;;;;8.37;82.82;99149.47;5069704;28;20066;-81
2022/01/04 08:22:38;;;;;;;1.15;1.15;;;;;;;8.01;83.73;99147.47;5065837;29;20036;-82
2022/01/04 08:25:14;;;;;;;0.77;0.77;;;;;;;7.93;84.67;99146.94;5066247;28;20070;-84
2022/01/04 08:27:45;;;;;;;1.50;1.40;;;;;;;7.99;84.61;99138.84;5112371;28;20032;-82
2022/01/04 08:30:15;;;;;;;0.55;0.55;;;;;;;8.08;83.87;99133.25;5078028;29;20058;-82
2022/01/04 08:32:53;;;;;;;0.40;0.40;;;;;;;7.81;84.71;99125.63;5057657;28;20570;-82
2022/01/04 08:35:26;;;;;;;0.88;0.88;;;;;;;7.91;84.70;99122.66;5090462;28;20414;-82
2022/01/04 08:37:57;;;;;;;0.65;0.65;;;;;;;7.97;84.41;99119.81;5099218;28;20036;-83
2022/01/04 08:40:28;;;;;;;0.93;0.70;;;;;;;7.86;84.84;99118.47;5064768;29;20120;-81
2022/01/04 08:43:07;;;;;;;0.82;0.82;;;;;;;8.03;84.18;99116.94;5067088;29;20475;-82
2022/01/04 08:45:38;;;;;;;0.70;0.70;;;;;;;8.11;83.84;99107.00;5081650;29;20055;-82
2022/01/04 08:48:16;;;;;;;1.08;1.08;;;;;;;8.12;83.55;99113.94;5081461;29;20034;-82
2022/01/04 08:50:48;;;;;;;0.40;0.40;;;;;;;7.83;84.63;99122.97;5067995;29;20039;-83
2022/01/04 08:53:21;;;;;;;2.38;1.25;;;;;;;7.75;84.79;99130.28;5065582;28;20038;-82
2022/01/04 08:55:56;;;;;;;0.70;0.70;;;;;;;7.71;84.73;99132.16;5064609;28;20097;-81
2022/01/04 08:58:28;;;;;;;0.65;0.65;;;;;;;7.68;85.47;99150.56;5063008;29;20032;-81
2022/01/04 09:01:02;;;;;;;0.95;0.95;;;;;;;7.62;85.64;99143.81;5078119;28;20067;-82
2022/01/04 09:03:35;;;;;;;0.65;0.65;;;;;;;7.65;85.42;99146.31;5064930;28;20023;-82
2022/01/04 09:06:08;;;;;;;0.52;0.52;;;;;;;7.67;85.56;99156.69;5077676;29;20044;-82
2022/01/04 09:08:42;;;;;;;0.93;0.93;;;;;;;7.63;85.96;99136.84;5057902;28;20070;-82
2022/01/04 09:11:15;;;;;;;0.40;0.40;;;;;;;7.71;86.14;99113.91;5083096;28;20047;-82
2022/01/04 09:13:45;;;;;;;1.52;1.42;;;;;;;7.70;85.92;99138.31;5047602;28;20036;-82
2022/01/04 09:19:06;;;;;;;0.40;0.40;;;;;;;7.65;86.25;99153.28;5092180;28;20039;-81
2022/01/04 09:21:37;;;;;;;1.23;0.73;;;;;;;7.59;86.14;99156.16;5070372;28;20494;-82
2022/01/04 09:24:08;;;;;;;0.57;0.57;;;;;;;7.67;85.85;99154.06;5056989;28;20196;-81
2022/01/04 09:26:41;;;;;;;0.73;0.73;;;;;;;7.65;86.64;99161.97;5063263;29;20166;-82
2022/01/04 09:29:12;;;;;;;0.40;0.40;;;;;;;7.62;86.29;99145.59;5062045;28;20040;-82
2022/01/04 09:31:49;;;;;;;0.60;0.60;;;;;;;7.53;86.57;99134.63;5083263;29;20099;-81
2022/01/04 09:34:22;;;;;;;1.27;1.27;;;;;;;7.43;86.90;99132.44;5089327;28;20067;-82
2022/01/04 09:36:54;;;;;;;0.32;0.32;;;;;;;7.51;86.76;99144.25;5091206;29;20027;-82
2022/01/04 09:39:27;;;;;;;0.50;0.50;;;;;;;7.65;86.19;99140.22;5086637;28;20040;-83
2022/01/04 09:41:59;;;;;;;1.88;1.77;;;;;;;7.53;87.11;99146.78;5085670;29;20063;-83
2022/01/04 09:44:32;;;;;;;0.88;0.88;;;;;;;7.44;86.94;99155.84;5052115;28;20043;-83
2022/01/04 09:47:04;;;;;;;0.47;0.47;;;;;;;7.39;86.98;99158.63;5080398;28;20094;-83
2022/01/04 09:50:08;;;;;;;0.70;0.70;;;;;;;7.55;86.75;99169.34;5080145;28;20051;-83
2022/01/04 09:52:46;;;;;;;0.55;0.55;;;;;;;7.49;87.12;99159.13;5092711;29;20038;-83
2022/01/04 09:55:20;;;;;;;0.40;0.40;;;;;;;7.39;86.88;99155.19;5075122;28;20036;-82
2022/01/04 09:57:56;;;;;;;0.60;0.60;;;;;;;7.47;86.82;99158.34;5066559;28;20503;-82
2022/01/04 10:00:27;;;;;;;0.55;0.55;;;;;;;7.50;87.08;99155.59;5083103;28;20048;-81
2022/01/04 10:03:25;;;;;;;0.40;0.40;;;;;;;7.53;86.83;99137.22;5068880;28;20062;-82
2022/01/04 10:06:04;;;;;;;1.42;1.33;;;;;;;7.49;87.25;99153.91;5076029;28;20101;-81
2022/01/04 10:09:11;;;;;;;;;;;;;;;;;;;;;
2022/01/04 10:11:50;;;;;;;0.52;0.52;;;;;;;7.55;86.92;99145.84;5099915;28;20063;-82
2022/01/04 10:14:25;;;;;;;0.55;0.55;;;;;;;7.48;87.06;99154.81;5082639;28;20042;-82
2022/01/04 10:16:58;;;;;;;0.75;0.73;;;;;;;7.38;87.60;99161.31;5080895;28;20190;-82
2022/01/04 10:19:34;;;;;;;;;;;;;;;7.38;87.47;99166.53;5073931;28;20539;-83
2022/01/04 10:22:11;;;;;;;0.70;0.70;;;;;;;7.36;87.47;99165.75;5081673;29;20248;-83
2022/01/04 10:24:44;;;;;;;0.80;0.80;;;;;;;7.32;87.34;99159.78;5074449;28;20059;-82
2022/01/04 10:27:31;;;;;;;0.75;0.75;;;;;;;7.28;87.83;99157.34;5087830;28;20023;-82
2022/01/04 10:30:26;;;;;;;0.77;0.77;;;;;;;7.33;87.12;99158.88;5161968;28;20036;-82
2022/01/04 10:33:07;;;;;;;0.43;0.43;;;;;;;7.25;87.77;99153.94;5050574;29;20032;-83
2022/01/04 10:35:44;;;;;;;0.45;0.45;;;;;;;7.28;87.91;99158.19;5080244;28;20050;-83
2022/01/04 10:38:15;;;;;;;0.40;0.40;;;;;;;7.29;87.53;99148.63;5066369;28;20032;-83
2022/01/04 10:40:50;;;;;;;0.40;0.40;;;;;;;7.31;87.70;99167.69;5077066;29;20055;-83
2022/01/04 10:43:27;;;;;;;1.25;1.23;;;;;;;7.28;87.74;99157.34;5080822;28;20547;-83
2022/01/04 10:46:04;;;;;;;0.40;0.40;;;;;;;7.25;88.21;99138.28;5085394;29;20071;-83
2022/01/04 10:48:41;;;;;;;0.70;0.70;;;;;;;7.23;88.26;99139.28;5082909;29;20032;-83
2022/01/04 10:51:20;;;;;;;0.70;0.70;;;;;;;7.27;88.30;99142.59;5067531;29;20047;-83
2022/01/04 10:53:57;;;;;;;0.82;0.82;;;;;;;7.21;88.55;99135.88;5059665;28;20047;-83
2022/01/04 10:56:33;;;;;;;1.33;1.27;;;;;;;7.22;88.69;99133.22;5097237;28;20036;-82
2022/01/04 10:59:13;;;;;;;0.30;0.30;;;;;;;7.22;88.71;99142.78;5058211;28;20067;-82
2022/01/04 11:01:46;;;;;;;0.60;0.60;;;;;;;7.16;88.79;99143.88;5084876;28;20031;-81
2022/01/04 11:04:26;;;;;;;0.40;0.40;;;;;;;7.20;88.75;99124.59;5059317;28;20106;-82
2022/01/04 11:07:11;;;;;;;0.65;0.65;;;;;;;7.28;88.52;99110.41;5067819;29;20035;-83
2022/01/04 11:09:42;;;;;;;0.50;0.50;;;;;;;7.28;88.84;99126.06;5167561;28;20078;-82
2022/01/04 11:12:13;;;;;;;0.50;0.50;;;;;;;7.33;88.53;99126.72;5055899;28;20055;-84
2022/01/04 11:14:47;;;;;;;0.73;0.73;;;;;;;7.28;88.64;99136.47;5066954;28;20048;-83
2022/01/04 11:17:21;;;;;;;1.23;1.13;;;;;;;7.30;88.40;99140.72;5074653;28;20031;-84
2022/01/04 11:19:54;;;;;;;0.40;0.40;;;;;;;7.29;88.85;99143.41;5056048;29;20559;-82
2022/01/04 11:22:28;;;;;;;0.45;0.45;;;;;;;7.32;88.22;99151.97;5079560;29;20023;-82
2022/01/04 11:25:03;;;;;;;1.08;0.98;;;;;;;7.33;88.14;99144.97;5086492;28;20040;-83
2022/01/04 11:27:44;;;;;;;1.10;1.10;;;;;;;7.31;88.07;99136.38;5068432;29;20099;-81
2022/01/04 11:30:29;;;;;;;0.40;0.40;;;;;;;7.32;88.05;99144.13;5080482;28;20168;-83
2022/01/04 11:33:07;;;;;;;0.50;0.50;;;;;;;7.30;88.10;99122.47;5065390;28;20038;-83
2022/01/04 11:35:58;;;;;;;0.88;0.88;;;;;;;7.29;88.02;99125.16;5030561;28;20052;-83
2022/01/04 11:38:40;;;;;;;0.40;0.40;;;;;;;7.30;88.20;99119.03;5083933;29;20035;-82
2022/01/04 11:41:33;;;;;;;0.73;0.73;;;;;;;7.27;87.97;99126.97;5092386;28;20044;-83
2022/01/04 11:44:36;;;;;;;0.98;0.98;;;;;;;7.29;88.02;99125.16;5110280;28;20046;-83
2022/01/04 11:48:15;;;;;;;;;;;;;;;;;;;;;
2022/01/04 11:51:09;;;;;;;0.63;0.63;;;;;;;7.34;88.06;99133.63;5081644;28;20108;-82
2022/01/04 11:54:18;;;;;;;10.00;2.40;;;;;;;7.30;88.03;99127.69;5062016;29;20046;-83
2022/01/04 11:56:54;;;;;;;0.60;0.60;;;;;;;7.32;88.34;99123.25;5070036;28;20051;-82
2022/01/04 12:00:15;;;;;;;;;;;;;;;;;;;;;
2022/01/04 12:03:21;;;;;;;;;;;;;;;;;;;;;
2022/01/04 12:05:59;;;;;;;1.85;1.60;;;;;;;7.31;88.67;99123.34;5082654;29;20044;-81
2022/01/04 12:08:47;;;;;;;2.38;1.67;;;;;;;7.33;88.72;99124.97;5083602;29;20099;-82
2022/01/04 12:11:29;;;;;;;0.60;0.60;;;;;;;7.42;88.17;99133.34;5083908;28;20036;-81
2022/01/04 12:14:39;;;;;;;1.30;1.30;;;;;;;7.39;88.51;99124.72;5065102;28;20024;-83
2022/01/04 12:17:34;;;;;;;0.45;0.45;;;;;;;7.42;88.50;99128.97;5108928;28;20101;-85
2022/01/04 12:20:05;;;;;;;0.40;0.40;;;;;;;7.43;88.58;99135.03;5070247;28;20043;-82
2022/01/04 12:27:16;;;;;;;1.23;1.20;;;;;;;7.42;88.70;99133.34;5401316;23;20045;-83
2022/01/04 12:29:54;;;;;;;0.50;0.50;;;;;;;7.45;88.55;99136.69;5151173;28;20108;-82
2022/01/04 12:32:30;;;;;;;2.55;2.35;;;;;;;7.49;88.57;99138.25;5154801;28;20102;-83
2022/01/04 12:35:07;;;;;;;0.50;0.50;;;;;;;7.49;88.20;99129.56;5148966;28;20648;-83
2022/01/04 12:37:38;;;;;;;1.55;1.45;;;;;;;7.47;88.31;99121.81;5150358;28;20026;-84
2022/01/04 12:40:11;;;;;;;0.90;0.90;;;;;;;7.48;88.28;99107.81;5141000;28;20105;-84